Etusivu
METAR-TAF:

METAR-TAF

Lentoasemat :

Bahrainin kansainvälinen lentoasema

Bahrain, Bahrain

Leveyspiiri: 26-16N, Pituuspiiri: 050-39E, korkeus merenpinnasta: 2 m

Tämänhetkinen sää

Tämä raportti tehtiin 23 minuuttia sitten, kello 19.30 UTC
tyyntä
Lämpötila 26°C
Kosteus 51%
Ilmanpaine 1015 hPa
Näkyvyys 10 km tai enemmän
ei pilviä alle 1500 m:ssä eikä cumulonimbus-pilviä

METAR: OBBI 111930Z 00000KT CAVOK 26/15 Q1015 NOSIG

Aika: 22:53 (19:53 UTC)

Sääennuste

Tämä raportti tehtiin 2 tuntia ja 53 minuuttia sitten, kello 17.00 UTC
Ennuste voimassa 11. päivästä klo 18 UTC - 13. päivään klo 00 UTC
Tuuli 5 kn eri suunnista
Näkyvyys 10 km tai enemmän
Muutamia pilviä 3000 ft:n korkeudessa
Tulossa
12. päivästä klo 07 UTC - 12. päivään klo 09 UTC
Tuuli 10 kn pohjoisesta

TAF: OBBI 111700Z 1118/1300 VRB05KT 9999 FEW030 BECMG 1207/1209 01010KT

Säähavainnot ja -ennusteet yli 4000 lentoasemalta (METAR- ja TAF-raportit).

Käytössä olevat sääasemat on merkitty karttaan keltaisilla ja punaisilla pisteillä.

Aseta hiiri pisteen päälle nähdäksesi sääaseman nimen.

Klikkaa sitten nähdäksesi säähavainnot ja -ennusteet.

Kartan vaihtaminen: klikkaa mustalla rastilla varustettuja vihreitä pisteitä, niin voit zoomata sisään; viivalla varustettua vihreää pistettä, niin voit zoomata ulos tai vihreitä nuolia, niin pääset viereisille kartoille.


METAR-TAF: